Time;durP1;ratioP1;P1;durP2;ratioP2;P2;SDS_P1;SDS_P2;PMS_P1;PMS_P2;Temp;Humidity;BMP_temperature;BMP_pressure;BME280_temperature;BME280_humidity;BME280_pressure;Samples;Min_cycle;Max_cycle;Signal;HPM_P1;HPM_P2
2023/05/04 00:01:51;;;;;;;;;6.67;6.33;;;;;;;;6372252;22;45140;-71
2023/05/04 00:04:16;;;;;;;;;9.67;7.33;;;;;;;;6372567;22;45217;-71
2023/05/04 00:06:41;;;;;;;;;8.33;8.33;;;;;;;;6371947;22;45373;-71
2023/05/04 00:09:07;;;;;;;;;8.00;8.00;;;;;;;;6372644;22;46495;-71
2023/05/04 00:11:32;;;;;;;;;9.00;9.00;;;;;;;;6372050;22;45275;-71
2023/05/04 00:13:57;;;;;;;;;8.00;8.00;;;;;;;;6372878;22;45269;-71
2023/05/04 00:16:23;;;;;;;;;7.33;5.67;;;;;;;;6372161;22;45258;-71
2023/05/04 00:18:48;;;;;;;;;8.67;7.33;;;;;;;;6372569;22;45445;-71
2023/05/04 00:21:13;;;;;;;;;11.00;7.00;;;;;;;;6371817;22;45266;-71
2023/05/04 00:23:38;;;;;;;;;9.33;9.33;;;;;;;;6372568;22;45424;-71
2023/05/04 00:26:04;;;;;;;;;7.00;7.00;;;;;;;;6343159;22;45637;-71
2023/05/04 00:28:29;;;;;;;;;6.00;6.00;;;;;;;;6372560;22;46226;-71
2023/05/04 00:30:54;;;;;;;;;8.67;8.67;;;;;;;;6371159;22;45274;-71
2023/05/04 00:33:20;;;;;;;;;10.33;8.33;;;;;;;;6372691;22;45013;-71
2023/05/04 00:35:45;;;;;;;;;10.00;8.00;;;;;;;;6371564;22;45397;-71
2023/05/04 00:38:11;;;;;;;;;10.67;9.00;;;;;;;;6372503;22;45260;-71
2023/05/04 00:40:36;;;;;;;;;7.00;6.00;;;;;;;;6343629;22;45389;-71
2023/05/04 00:43:01;;;;;;;;;7.67;7.33;;;;;;;;6343598;22;45344;-71
2023/05/04 00:45:26;;;;;;;;;8.00;7.00;;;;;;;;6372144;22;45280;-71
2023/05/04 00:47:52;;;;;;;;;8.00;7.33;;;;;;;;6372086;22;46426;-71
2023/05/04 00:50:17;;;;;;;;;7.00;7.00;;;;;;;;6371742;22;45388;-71
2023/05/04 00:52:43;;;;;;;;;8.00;6.67;;;;;;;;6371940;22;45237;-71
2023/05/04 00:55:09;;;;;;;;;10.00;8.00;;;;;;;;6371972;22;45388;-70
2023/05/04 00:57:35;;;;;;;;;10.00;8.25;;;;;;;;6371764;22;45302;-70
2023/05/04 01:00:00;;;;;;;;;5.00;5.00;;;;;;;;6371666;22;45210;-69
2023/05/04 01:02:25;;;;;;;;;10.00;8.67;;;;;;;;6372299;22;45490;-70
2023/05/04 01:04:50;;;;;;;;;9.00;8.33;;;;;;;;6342919;22;46096;-69
2023/05/04 01:07:21;;;;;;;;;7.00;7.00;;;;;;;;6371276;22;45210;-70
2023/05/04 01:09:58;;;;;;;;;7.00;7.00;;;;;;;;6372014;22;45270;-70
2023/05/04 01:12:43;;;;;;;;;8.67;8.67;;;;;;;;6371866;22;45175;-70
2023/05/04 01:15:09;;;;;;;;;10.00;9.33;;;;;;;;6369689;22;45521;-70
2023/05/04 01:17:34;;;;;;;;;9.50;8.50;;;;;;;;6371137;22;47755;-70
2023/05/04 01:19:59;;;;;;;;;11.00;9.75;;;;;;;;6371624;22;45144;-70
2023/05/04 01:22:25;;;;;;;;;9.33;9.00;;;;;;;;6372038;22;45087;-70
2023/05/04 01:24:50;;;;;;;;;10.00;10.00;;;;;;;;6370660;22;45532;-70
2023/05/04 01:27:19;;;;;;;;;10.67;9.00;;;;;;;;6371713;22;45179;-70
2023/05/04 01:29:51;;;;;;;;;11.50;10.00;;;;;;;;6343065;22;45302;-69
2023/05/04 01:32:17;;;;;;;;;8.25;7.50;;;;;;;;6371551;22;45270;-69
2023/05/04 01:34:42;;;;;;;;;9.25;9.00;;;;;;;;6371186;22;45390;-70
2023/05/04 01:37:08;;;;;;;;;9.50;8.25;;;;;;;;6371213;22;45234;-70
2023/05/04 01:39:33;;;;;;;;;13.50;10.00;;;;;;;;6371895;22;45206;-70
2023/05/04 01:41:58;;;;;;;;;10.25;9.50;;;;;;;;6371731;22;45261;-70
2023/05/04 01:44:23;;;;;;;;;7.75;7.75;;;;;;;;6371977;22;45453;-70
2023/05/04 01:46:48;;;;;;;;;8.00;6.75;;;;;;;;6371355;22;45313;-70
2023/05/04 01:49:14;;;;;;;;;8.00;7.00;;;;;;;;6371708;22;45270;-70
2023/05/04 01:51:39;;;;;;;;;10.25;10.00;;;;;;;;6370680;22;45363;-70
2023/05/04 01:54:05;;;;;;;;;11.75;9.00;;;;;;;;6371714;22;45261;-70
2023/05/04 01:56:30;;;;;;;;;10.00;8.25;;;;;;;;6342079;22;47320;-70
2023/05/04 01:58:55;;;;;;;;;12.50;9.75;;;;;;;;6370208;22;45258;-70
2023/05/04 02:01:20;;;;;;;;;8.75;7.75;;;;;;;;6370866;22;45287;-70
2023/05/04 02:03:46;;;;;;;;;10.25;8.00;;;;;;;;6371746;22;45261;-70
2023/05/04 02:06:11;;;;;;;;;9.50;9.25;;;;;;;;6370555;22;46179;-70
2023/05/04 02:08:37;;;;;;;;;10.75;8.75;;;;;;;;6342500;22;45254;-70
2023/05/04 02:11:02;;;;;;;;;9.50;7.25;;;;;;;;6371428;22;45226;-70
2023/05/04 02:13:27;;;;;;;;;12.00;11.00;;;;;;;;6371425;22;45213;-70
2023/05/04 02:15:52;;;;;;;;;10.75;10.50;;;;;;;;6370850;22;45216;-70
2023/05/04 02:18:17;;;;;;;;;11.50;9.25;;;;;;;;6371278;22;45206;-70
2023/05/04 02:20:43;;;;;;;;;9.25;8.25;;;;;;;;6372512;22;45137;-70
2023/05/04 17:19:23;;;;;;;;;4.00;4.00;;;;;;;;6310745;22;45701;-73
2023/05/04 17:21:48;;;;;;;;;4.00;4.00;;;;;;;;6369874;22;45392;-71
2023/05/04 17:24:14;;;;;;;;;4.00;2.75;;;;;;;;6371028;22;45199;-73
2023/05/04 17:26:39;;;;;;;;;6.00;3.00;;;;;;;;6371204;22;45602;-72
2023/05/04 17:29:05;;;;;;;;;4.50;3.00;;;;;;;;6371645;22;45612;-72
2023/05/04 17:31:31;;;;;;;;;3.75;3.75;;;;;;;;6370062;22;45322;-71
2023/05/04 17:33:56;;;;;;;;;4.00;4.00;;;;;;;;6371159;22;46205;-72
2023/05/04 17:36:21;;;;;;;;;3.50;3.00;;;;;;;;6371233;22;45281;-72
2023/05/04 17:38:46;;;;;;;;;4.75;3.75;;;;;;;;6371852;22;45609;-71
2023/05/04 17:41:12;;;;;;;;;2.00;2.00;;;;;;;;6371926;22;45458;-72
2023/05/04 17:43:37;;;;;;;;;2.00;2.00;;;;;;;;6342679;22;45970;-72
2023/05/04 17:46:02;;;;;;;;;2.00;2.00;;;;;;;;6342850;22;45317;-72
2023/05/04 17:48:30;;;;;;;;;3.25;3.25;;;;;;;;6371288;22;45480;-70
2023/05/04 17:50:55;;;;;;;;;3.00;3.00;;;;;;;;6372302;22;45419;-70
2023/05/04 17:53:20;;;;;;;;;1.75;1.75;;;;;;;;6370700;22;46233;-70
2023/05/04 17:55:45;;;;;;;;;1.75;1.50;;;;;;;;6372124;22;45164;-70
2023/05/04 17:58:11;;;;;;;;;1.25;1.00;;;;;;;;6372610;22;45162;-70
2023/05/04 18:00:36;;;;;;;;;1.75;1.75;;;;;;;;6372700;22;45492;-70
2023/05/04 18:03:01;;;;;;;;;2.00;2.00;;;;;;;;6372290;22;45730;-70
2023/05/04 18:05:26;;;;;;;;;3.50;1.00;;;;;;;;6372660;22;45234;-70
2023/05/04 18:07:51;;;;;;;;;2.00;2.00;;;;;;;;6372365;22;45210;-70
2023/05/04 18:10:17;;;;;;;;;0.75;0.75;;;;;;;;6373060;22;45209;-70
2023/05/04 18:12:42;;;;;;;;;0.50;0.50;;;;;;;;6371367;22;45254;-70
2023/05/04 18:15:08;;;;;;;;;0.75;0.00;;;;;;;;6343389;22;45307;-70
2023/05/04 18:17:33;;;;;;;;;1.25;1.25;;;;;;;;6372798;22;45222;-69
2023/05/04 18:19:58;;;;;;;;;0.00;0.00;;;;;;;;6371718;22;45223;-69
2023/05/04 18:22:24;;;;;;;;;1.25;0.75;;;;;;;;6373495;22;45342;-69
2023/05/04 18:24:49;;;;;;;;;1.00;1.00;;;;;;;;6372631;22;45273;-70
2023/05/04 18:27:14;;;;;;;;;1.00;1.00;;;;;;;;6373701;22;45214;-71
2023/05/04 18:29:39;;;;;;;;;1.75;0.50;;;;;;;;6372970;22;45368;-70
2023/05/04 18:32:07;;;;;;;;;0.25;0.25;;;;;;;;6373115;22;46092;-70
2023/05/04 18:34:32;;;;;;;;;0.75;0.75;;;;;;;;6372891;22;45292;-70
2023/05/04 18:36:57;;;;;;;;;2.00;0.00;;;;;;;;6373607;22;44651;-70
2023/05/04 18:39:22;;;;;;;;;1.00;1.00;;;;;;;;6372883;22;45364;-71
2023/05/04 18:41:48;;;;;;;;;0.00;0.00;;;;;;;;6373014;22;45255;-70
2023/05/04 18:44:13;;;;;;;;;0.00;0.00;;;;;;;;6373101;22;45241;-70
2023/05/04 18:46:39;;;;;;;;;0.00;0.00;;;;;;;;6373518;22;45269;-71
2023/05/04 18:49:04;;;;;;;;;0.50;0.50;;;;;;;;6372441;22;45283;-72
2023/05/04 18:51:29;;;;;;;;;0.75;0.75;;;;;;;;6373007;22;45492;-71
2023/05/04 18:53:55;;;;;;;;;1.00;1.00;;;;;;;;6372715;22;45253;-71
2023/05/04 18:56:20;;;;;;;;;1.00;1.00;;;;;;;;6372797;22;45333;-72
2023/05/04 18:58:45;;;;;;;;;1.00;1.00;;;;;;;;6373149;22;45483;-74
2023/05/04 19:01:11;;;;;;;;;1.00;1.00;;;;;;;;6344142;22;46143;-74
2023/05/04 19:03:36;;;;;;;;;2.50;1.00;;;;;;;;6370978;22;45348;-73
2023/05/04 19:06:02;;;;;;;;;1.00;1.00;;;;;;;;6372857;22;45439;-74
2023/05/04 19:08:27;;;;;;;;;0.50;0.50;;;;;;;;6373203;22;45471;-74
2023/05/04 19:10:55;;;;;;;;;1.75;1.00;;;;;;;;6372893;22;45396;-74
2023/05/04 19:13:20;;;;;;;;;1.50;1.50;;;;;;;;6343605;22;45295;-73
2023/05/04 19:15:45;;;;;;;;;0.00;0.00;;;;;;;;6373361;22;45451;-73
2023/05/04 19:18:10;;;;;;;;;0.00;0.00;;;;;;;;6371807;22;45324;-73
2023/05/04 19:20:36;;;;;;;;;0.00;0.00;;;;;;;;6371917;22;45307;-73
2023/05/04 19:23:02;;;;;;;;;0.75;0.75;;;;;;;;6372880;22;45336;-74
2023/05/04 19:25:27;;;;;;;;;1.50;0.75;;;;;;;;6373344;22;45184;-73
2023/05/04 19:27:52;;;;;;;;;1.00;1.00;;;;;;;;6372770;22;45115;-72
2023/05/04 19:30:17;;;;;;;;;1.25;0.75;;;;;;;;6373046;22;45371;-72
2023/05/04 19:32:43;;;;;;;;;3.00;0.00;;;;;;;;6372783;22;45218;-73
2023/05/04 19:35:08;;;;;;;;;0.25;0.25;;;;;;;;6372808;22;45226;-73
2023/05/04 19:37:36;;;;;;;;;1.00;1.00;;;;;;;;6372938;22;45258;-73
2023/05/04 19:40:03;;;;;;;;;1.00;1.00;;;;;;;;6372887;22;46254;-73
2023/05/04 19:42:29;;;;;;;;;0.00;0.00;;;;;;;;6373051;22;45226;-72
2023/05/04 19:44:54;;;;;;;;;0.00;0.00;;;;;;;;6373165;22;45202;-71
2023/05/04 19:47:19;;;;;;;;;1.00;1.00;;;;;;;;6372787;22;45743;-71
2023/05/04 19:49:46;;;;;;;;;2.00;1.00;;;;;;;;6372600;22;45262;-71
2023/05/04 19:52:11;;;;;;;;;0.50;0.50;;;;;;;;6343838;22;45353;-72
2023/05/04 19:54:39;;;;;;;;;0.00;0.00;;;;;;;;6372968;22;45224;-72
2023/05/04 19:57:05;;;;;;;;;2.00;2.00;;;;;;;;6371992;22;45164;-72
2023/05/04 19:59:30;;;;;;;;;0.33;0.33;;;;;;;;6372741;22;46098;-72
2023/05/04 20:01:57;;;;;;;;;0.50;0.00;;;;;;;;6372364;22;45321;-72
2023/05/04 20:04:22;;;;;;;;;0.33;0.33;;;;;;;;6371075;22;45183;-71
2023/05/04 20:06:47;;;;;;;;;1.33;1.00;;;;;;;;6372797;22;45198;-71
2023/05/04 20:09:13;;;;;;;;;1.00;1.00;;;;;;;;6372196;22;45389;-72
2023/05/04 20:11:38;;;;;;;;;1.33;0.67;;;;;;;;6372782;22;45097;-71
2023/05/04 20:14:03;;;;;;;;;3.00;1.00;;;;;;;;6372495;22;45179;-72
2023/05/04 20:16:28;;;;;;;;;0.33;0.33;;;;;;;;6372571;22;45183;-72
2023/05/04 20:18:53;;;;;;;;;1.00;1.00;;;;;;;;6371302;22;46147;-71
2023/05/04 20:21:19;;;;;;;;;0.67;0.67;;;;;;;;6372606;22;45164;-71
2023/05/04 20:23:44;;;;;;;;;0.00;0.00;;;;;;;;6372703;22;45271;-73
2023/05/04 20:26:09;;;;;;;;;0.00;0.00;;;;;;;;6344305;22;45985;-72
2023/05/04 20:28:34;;;;;;;;;0.00;0.00;;;;;;;;6343710;22;47351;-73
2023/05/04 20:31:00;;;;;;;;;1.00;1.00;;;;;;;;6344390;22;45202;-72
2023/05/04 20:33:25;;;;;;;;;1.00;1.00;;;;;;;;6372079;22;45421;-72
2023/05/04 20:35:50;;;;;;;;;1.33;1.33;;;;;;;;6344486;22;45274;-73
2023/05/04 20:38:15;;;;;;;;;0.67;0.67;;;;;;;;6344485;22;47374;-72
2023/05/04 20:40:41;;;;;;;;;0.67;0.67;;;;;;;;6372671;22;45308;-72
2023/05/04 20:43:06;;;;;;;;;3.67;3.67;;;;;;;;6372901;22;45409;-73
2023/05/04 20:45:32;;;;;;;;;4.67;2.00;;;;;;;;6372719;22;45208;-72
2023/05/04 20:47:57;;;;;;;;;3.00;3.00;;;;;;;;6371798;22;46761;-72
2023/05/04 20:50:23;;;;;;;;;1.67;1.67;;;;;;;;6372491;22;45289;-72
2023/05/04 20:52:48;;;;;;;;;0.67;0.67;;;;;;;;6372394;22;45257;-72
2023/05/04 20:55:13;;;;;;;;;0.67;0.67;;;;;;;;6372373;22;45179;-72
2023/05/04 20:57:39;;;;;;;;;2.67;1.67;;;;;;;;6371097;22;45360;-72
2023/05/04 21:00:05;;;;;;;;;2.00;1.00;;;;;;;;6372489;22;45284;-73
2023/05/04 21:02:30;;;;;;;;;1.00;0.33;;;;;;;;6369984;22;45292;-72
2023/05/04 21:04:55;;;;;;;;;0.67;0.67;;;;;;;;6342654;22;45675;-72
2023/05/04 21:07:21;;;;;;;;;5.67;4.33;;;;;;;;6371819;22;45235;-73
2023/05/04 21:09:46;;;;;;;;;2.00;2.00;;;;;;;;6372074;22;45381;-72
2023/05/04 21:12:11;;;;;;;;;2.00;1.67;;;;;;;;6372106;22;45198;-73
2023/05/04 21:14:36;;;;;;;;;1.00;1.00;;;;;;;;6371711;22;45383;-73
2023/05/04 21:17:01;;;;;;;;;0.67;0.67;;;;;;;;6343366;22;46955;-73
2023/05/04 21:19:27;;;;;;;;;0.67;0.67;;;;;;;;6371294;22;45395;-72
2023/05/04 21:21:52;;;;;;;;;0.33;0.33;;;;;;;;6372432;22;45222;-72
2023/05/04 21:24:17;;;;;;;;;0.67;0.67;;;;;;;;6371051;22;45815;-72
